Airfield :
LOGIN :

Register | Disclaimer

   EN    FR    IT 

 










Legend :    VFR   Marginal VFR   IFR   Intensive IFR   Very Intensive IFR
Visi :
Ceiling :
>= 8 km
>= 3000ft
5 to 8 km
1000 to 3000 ft
1500m to 5 km
500 to 1000 ft
800 to 1500m
200 to 500 ft
< 800m
< 200 ft
Symbols :   Thunderstorms  Fog  Heavy snow  Heavy precipitations  Wind > 20 kt
SIGMETs :     Misc.  Thunderstorms  Icing  Turbulence  Mountain Waves  Volcanic Ashes






- Airport Elevation : 645 ft
- IATA code : DLE


LFGJ - Dole Tavaux

CURRENT METAR :
  • 111600Z AUTO 20005KT 100V270 CAVOK 36/13 Q1013 TEMPO TS FEW070CB

EXPIRED METARs :
  • 111530Z AUTO VRB04KT CAVOK 36/13 Q1013 TEMPO TS FEW070CB
  • 111500Z AUTO VRB03KT CAVOK 36/14 Q1013 TEMPO TS FEW070CB
  • 111430Z AUTO 21006KT 170V250 CAVOK 36/14 Q1013 TEMPO TS FEW070CB
  • 111400Z AUTO VRB04KT CAVOK 35/14 Q1014 TEMPO TS FEW070CB
  • 111330Z AUTO VRB04KT CAVOK 35/13 Q1014 TEMPO TS FEW070CB

TAF TAF LFGJ
Valid from the 11 at 15:00 until the 12 at 00:00 UTC


111400Z 1115/1124 21005KT CAVOK
TEMPO 1115/1120 FEW070CB
PROB30
TEMPO 1115/1120 TS



MET'MAP, your aeronautical weather chart ! - Copyright ORBIFLY December 2007 - Disclaimer

ORBIFLY MET'MAP TEAM :

Programming & Development : Alexandra Zaïnal
Concept & original design : Baudouin d'Aumeries
Assistance for programming : Marc-Olivier Méhu
Technical & hardware support : Manuel Goepfert

Contact : metmap@orbifly.com




SOURCES & CREDITS :

   NOAA